createdAt,value
2022-11-13T00:03:16.384Z,72.56
2022-11-13T00:07:19.907Z,72.48
2022-11-13T00:11:23.399Z,72.96
2022-11-13T00:20:50.755Z,72.83
2022-11-13T00:24:55.006Z,73.14
2022-11-13T00:28:59.410Z,72.74
2022-11-13T00:33:03.086Z,73.18
2022-11-13T00:37:08.005Z,72.63
2022-11-13T00:41:10.978Z,72.93
2022-11-13T00:45:14.510Z,72.81
2022-11-13T00:49:18.338Z,72.91
2022-11-13T00:53:23.117Z,73.06
2022-11-13T00:57:27.166Z,72.68
2022-11-13T01:01:30.256Z,73.22
2022-11-13T01:05:38.000Z,73.21
2022-11-13T01:09:42.910Z,72.82
2022-11-13T01:13:48.091Z,72.92
2022-11-13T01:17:52.365Z,72.97
2022-11-13T01:21:56.035Z,73.02
2022-11-13T01:26:08.076Z,73.25
2022-11-13T01:30:12.383Z,73.13
2022-11-13T01:34:15.870Z,72.86
2022-11-13T01:38:18.888Z,72.75
2022-11-13T01:42:24.058Z,73.19
2022-11-13T01:46:31.680Z,72.59
2022-11-13T01:50:34.726Z,72.58
2022-11-13T01:54:42.578Z,73.00
2022-11-13T01:58:53.005Z,72.82
2022-11-13T02:02:57.537Z,72.38
2022-11-13T02:07:03.242Z,72.96
2022-11-13T02:11:06.908Z,73.17
2022-11-13T02:15:11.983Z,73.49
2022-11-13T02:19:21.930Z,73.13
2022-11-13T02:23:37.724Z,72.97
2022-11-13T02:27:46.222Z,73.32
2022-11-13T02:31:49.893Z,73.38
2022-11-13T02:35:53.663Z,73.25
2022-11-13T02:39:56.698Z,73.13
2022-11-13T02:44:01.810Z,72.60
2022-11-13T02:48:05.495Z,73.03
2022-11-13T02:52:08.630Z,72.75
2022-11-13T02:56:12.073Z,73.26
2022-11-13T03:00:18.054Z,73.30
2022-11-13T03:04:21.609Z,73.68
2022-11-13T03:08:26.197Z,73.86
2022-11-13T03:12:29.957Z,74.36
2022-11-13T03:16:36.614Z,74.37
2022-11-13T03:20:42.284Z,74.66
2022-11-13T03:24:45.274Z,74.40
2022-11-13T03:28:48.690Z,75.32
2022-11-13T03:32:57.084Z,75.69
2022-11-13T03:37:00.439Z,75.83
2022-11-13T03:41:04.124Z,75.75
2022-11-13T03:45:07.908Z,76.46
2022-11-13T03:49:12.329Z,76.56
2022-11-13T03:53:16.584Z,76.09
2022-11-13T03:57:20.194Z,76.35
2022-11-13T04:01:23.247Z,75.39
2022-11-13T04:05:28.649Z,76.09
2022-11-13T04:09:31.712Z,75.88
2022-11-13T04:13:34.710Z,75.43
2022-11-13T04:17:39.586Z,75.48
2022-11-13T04:21:44.482Z,75.52
2022-11-13T04:25:49.842Z,75.31
2022-11-13T04:29:53.283Z,75.79
2022-11-13T04:33:56.739Z,75.84
2022-11-13T04:38:01.129Z,75.35
2022-11-13T04:42:22.382Z,75.68
2022-11-13T04:46:25.811Z,75.88
2022-11-13T04:50:29.219Z,76.00
2022-11-13T04:54:34.096Z,75.50
2022-11-13T04:58:37.469Z,75.85
2022-11-13T05:02:40.847Z,75.73
2022-11-13T05:06:44.316Z,75.75
2022-11-13T05:10:49.269Z,76.39
2022-11-13T05:14:52.670Z,75.52
2022-11-13T05:18:56.332Z,75.43
2022-11-13T05:22:59.739Z,75.57
2022-11-13T05:27:04.657Z,75.93
2022-11-13T05:31:09.124Z,76.07
2022-11-13T05:35:12.774Z,77.08
2022-11-13T05:39:16.230Z,77.03
2022-11-13T05:43:21.399Z,76.41
2022-11-13T05:47:24.847Z,76.46
2022-11-13T05:51:29.779Z,76.44
2022-11-13T05:55:33.102Z,76.82
2022-11-13T05:59:38.089Z,76.92
2022-11-13T06:03:41.599Z,77.18
2022-11-13T06:07:45.162Z,77.89
2022-11-13T06:11:49.217Z,77.55
2022-11-13T06:15:53.610Z,77.57
2022-11-13T06:24:06.825Z,77.87
2022-11-13T06:28:11.295Z,77.77
2022-11-13T06:32:16.281Z,77.45
2022-11-13T06:36:21.805Z,77.65
2022-11-13T06:40:24.893Z,77.74
2022-11-13T06:44:28.497Z,78.30
2022-11-13T06:48:33.763Z,78.28
2022-11-13T06:52:36.791Z,78.78
2022-11-13T06:56:44.357Z,78.38
2022-11-13T07:00:48.297Z,77.98
2022-11-13T07:04:52.901Z,77.58
2022-11-13T07:08:56.336Z,77.25
2022-11-13T07:13:01.352Z,76.95
2022-11-13T07:17:09.568Z,77.20
2022-11-13T07:21:15.102Z,76.82
2022-11-13T07:25:18.684Z,76.46
2022-11-13T07:29:21.680Z,76.33
2022-11-13T07:33:24.784Z,76.36
2022-11-13T07:37:30.224Z,76.29
2022-11-13T07:41:33.709Z,76.14
2022-11-13T07:45:37.431Z,76.11
2022-11-13T07:49:41.136Z,75.86
2022-11-13T07:53:45.566Z,75.92
2022-11-13T07:57:49.117Z,75.93
2022-11-13T08:01:52.277Z,75.60
2022-11-13T08:06:02.289Z,75.00
2022-11-13T08:10:09.163Z,75.27
2022-11-13T08:14:14.189Z,74.73
2022-11-13T08:18:17.460Z,74.78
2022-11-13T08:22:20.990Z,74.65
2022-11-13T08:26:25.516Z,74.41
2022-11-13T08:30:30.877Z,74.33
2022-11-13T08:34:34.422Z,74.32
2022-11-13T08:38:37.618Z,74.17
2022-11-13T08:42:42.435Z,74.16
2022-11-13T08:46:45.990Z,73.85
2022-11-13T08:50:53.002Z,74.14
2022-11-13T08:54:56.432Z,74.43
2022-11-13T08:59:00.947Z,73.98
2022-11-13T09:03:04.211Z,73.70
2022-11-13T09:07:07.912Z,73.80
2022-11-13T09:11:11.127Z,74.00
2022-11-13T09:15:19.155Z,73.91
2022-11-13T09:19:27.307Z,73.62
2022-11-13T09:23:31.007Z,72.49
2022-11-13T09:27:34.001Z,71.58
2022-11-13T09:31:41.604Z,72.06
2022-11-13T09:35:45.763Z,70.46
2022-11-13T09:39:48.791Z,69.57
2022-11-13T09:43:59.595Z,69.36
2022-11-13T09:48:26.564Z,69.89
2022-11-13T09:52:35.461Z,68.36
2022-11-13T09:56:45.023Z,68.83
2022-11-13T10:00:48.562Z,67.22
2022-11-13T10:05:02.778Z,67.51
2022-11-13T10:09:21.139Z,66.27
2022-11-13T10:13:35.774Z,65.59
2022-11-13T10:17:42.271Z,64.83
2022-11-13T10:21:52.249Z,64.23
2022-11-13T10:26:22.006Z,63.70
2022-11-13T10:30:25.236Z,63.98
2022-11-13T10:34:29.040Z,64.38
2022-11-13T10:38:42.336Z,63.74
2022-11-13T10:42:45.940Z,63.87
2022-11-13T10:46:49.861Z,62.17
2022-11-13T10:50:58.473Z,63.65
2022-11-13T10:55:23.209Z,64.63
2022-11-13T10:59:27.168Z,62.02
2022-11-13T11:03:31.032Z,62.36
2022-11-13T11:07:41.728Z,63.54
2022-11-13T11:12:18.978Z,63.04
2022-11-13T11:16:26.285Z,61.67
2022-11-13T11:20:41.741Z,61.63
2022-11-13T11:24:52.677Z,61.54
2022-11-13T11:29:06.949Z,61.93
2022-11-13T11:33:17.449Z,61.08
2022-11-13T11:37:23.306Z,59.94
2022-11-13T11:41:40.235Z,60.13
2022-11-13T11:45:47.218Z,59.08
2022-11-13T11:49:51.439Z,58.96
2022-11-13T11:54:06.165Z,59.11
2022-11-13T11:58:24.289Z,59.01
2022-11-13T12:02:56.973Z,59.48
2022-11-13T12:07:13.818Z,58.22
2022-11-13T12:11:24.133Z,59.00
2022-11-13T12:15:37.716Z,57.89
2022-11-13T12:19:56.513Z,58.12
2022-11-13T12:29:22.839Z,58.34
2022-11-13T12:33:37.423Z,58.14
2022-11-13T12:37:51.379Z,58.11
2022-11-13T12:42:00.157Z,58.46
2022-11-13T12:46:09.458Z,58.47
2022-11-13T12:50:31.707Z,58.29
2022-11-13T12:54:39.199Z,58.38
2022-11-13T12:58:42.424Z,58.98
2022-11-13T13:03:06.735Z,59.53
2022-11-13T13:07:24.206Z,59.63
2022-11-13T13:11:38.281Z,59.09
2022-11-13T13:15:45.167Z,58.43
2022-11-13T13:19:58.917Z,59.33
2022-11-13T13:24:10.212Z,58.59
2022-11-13T13:28:24.630Z,58.87
2022-11-13T13:32:37.849Z,58.75
2022-11-13T13:36:47.095Z,57.61
2022-11-13T13:41:27.015Z,58.33
2022-11-13T13:45:43.178Z,56.85
2022-11-13T13:49:46.740Z,57.64
2022-11-13T13:53:50.768Z,58.28
2022-11-13T13:57:54.270Z,57.24
2022-11-13T14:02:00.769Z,58.52
2022-11-13T14:06:12.906Z,59.86
2022-11-13T14:10:19.069Z,58.42
2022-11-13T14:14:25.298Z,59.04
2022-11-13T14:18:30.640Z,59.65
2022-11-13T14:22:34.266Z,59.54
2022-11-13T14:26:37.463Z,60.05
2022-11-13T14:30:40.926Z,59.77
2022-11-13T14:34:48.463Z,59.98
2022-11-13T14:38:52.653Z,59.97
2022-11-13T14:42:59.077Z,60.11
2022-11-13T14:47:04.963Z,60.61
2022-11-13T14:51:25.117Z,61.91
2022-11-13T14:55:30.849Z,60.31
2022-11-13T14:59:33.789Z,60.60
2022-11-13T15:03:36.959Z,60.70
2022-11-13T15:07:44.090Z,61.58
2022-11-13T15:11:47.282Z,61.56
2022-11-13T15:15:51.081Z,61.87
2022-11-13T15:19:56.693Z,62.02
2022-11-13T15:24:02.480Z,62.24
2022-11-13T15:28:06.015Z,62.35
2022-11-13T15:32:12.055Z,63.03
2022-11-13T15:36:15.773Z,63.28
2022-11-13T15:40:20.924Z,63.68
2022-11-13T15:44:24.213Z,64.14
2022-11-13T15:48:27.636Z,64.04
2022-11-13T15:52:34.223Z,64.30
2022-11-13T15:56:39.311Z,64.94
2022-11-13T16:00:43.667Z,64.94
2022-11-13T16:04:56.446Z,65.18
2022-11-13T16:09:00.681Z,65.28
2022-11-13T16:13:05.947Z,65.63
2022-11-13T16:17:14.522Z,65.63
2022-11-13T16:21:19.442Z,65.71
2022-11-13T16:25:24.187Z,65.73
2022-11-13T16:29:30.050Z,65.53
2022-11-13T16:33:33.624Z,66.07
2022-11-13T16:37:36.935Z,66.44
2022-11-13T16:41:40.471Z,66.59
2022-11-13T16:50:18.795Z,66.77
2022-11-13T16:54:21.886Z,66.21
2022-11-13T16:58:26.637Z,66.37
2022-11-13T17:02:31.462Z,66.42
2022-11-13T17:06:36.431Z,66.58
2022-11-13T17:10:39.945Z,66.54
2022-11-13T17:14:43.429Z,66.40
2022-11-13T17:18:49.947Z,66.37
2022-11-13T17:22:52.916Z,66.52
2022-11-13T17:26:56.562Z,66.50
2022-11-13T17:31:03.840Z,66.54
2022-11-13T17:35:11.644Z,66.51
2022-11-13T17:39:14.738Z,66.09
2022-11-13T17:43:17.819Z,66.34
2022-11-13T17:47:21.445Z,66.66
2022-11-13T17:51:26.517Z,66.54
2022-11-13T17:55:29.576Z,66.63
2022-11-13T17:59:33.072Z,66.95
2022-11-13T18:12:27.327Z,67.09
2022-11-13T18:16:34.705Z,67.57
2022-11-13T18:20:41.922Z,67.38
2022-11-13T18:24:46.717Z,67.40
2022-11-13T18:28:50.574Z,67.59
2022-11-13T18:32:53.679Z,67.38
2022-11-13T18:36:57.510Z,67.36
2022-11-13T18:41:07.417Z,67.29
2022-11-13T18:45:12.297Z,67.27
2022-11-13T18:49:16.327Z,66.93
2022-11-13T18:53:20.175Z,67.21
2022-11-13T18:57:25.651Z,66.84
2022-11-13T19:01:31.243Z,67.00
2022-11-13T19:05:36.827Z,67.05
2022-11-13T19:09:45.787Z,66.82
2022-11-13T19:13:51.415Z,66.92
2022-11-13T19:17:54.535Z,67.50
2022-11-13T19:21:58.435Z,67.19
2022-11-13T19:26:03.533Z,67.50
2022-11-13T19:30:09.244Z,67.69
2022-11-13T19:34:13.408Z,67.69
2022-11-13T19:38:16.852Z,67.62
2022-11-13T19:42:20.630Z,67.65
2022-11-13T19:46:25.167Z,67.90
2022-11-13T19:50:28.927Z,67.83
2022-11-13T19:54:32.544Z,68.21
2022-11-13T19:58:36.251Z,67.89
2022-11-13T20:02:40.782Z,68.42
2022-11-13T20:06:44.806Z,68.48
2022-11-13T20:10:48.199Z,68.47
2022-11-13T20:14:51.848Z,68.52
2022-11-13T20:18:59.598Z,68.71
2022-11-13T20:23:03.046Z,68.55
2022-11-13T20:27:07.401Z,68.57
2022-11-13T20:31:20.013Z,68.62
2022-11-13T20:35:24.981Z,68.36
2022-11-13T20:39:31.529Z,68.48
2022-11-13T20:43:35.242Z,68.42
2022-11-13T20:47:39.413Z,68.42
2022-11-13T20:51:48.275Z,68.15
2022-11-13T20:55:52.066Z,68.37
2022-11-13T20:59:58.905Z,68.22
2022-11-13T21:04:02.498Z,68.23
2022-11-13T21:08:07.855Z,68.40
2022-11-13T21:12:11.678Z,68.33
2022-11-13T21:16:16.674Z,68.65
2022-11-13T21:20:20.013Z,68.83
2022-11-13T21:24:24.592Z,68.96
2022-11-13T21:28:32.243Z,69.05
2022-11-13T21:32:39.239Z,69.03
2022-11-13T21:36:42.435Z,68.70
2022-11-13T21:41:07.479Z,68.74
2022-11-13T21:45:12.763Z,68.62
2022-11-13T21:49:15.809Z,68.49
2022-11-13T21:53:18.909Z,68.48
2022-11-13T21:57:24.817Z,68.75
2022-11-13T22:01:32.435Z,68.31
2022-11-13T22:05:40.085Z,68.19
2022-11-13T22:09:43.683Z,68.49
2022-11-13T22:13:48.229Z,68.20
2022-11-13T22:17:51.942Z,68.03
2022-11-13T22:21:55.804Z,67.98
2022-11-13T22:26:03.357Z,68.30
2022-11-13T22:30:09.674Z,68.37
2022-11-13T22:34:13.444Z,68.68
2022-11-13T22:38:16.886Z,68.63
2022-11-13T22:42:20.343Z,69.01
2022-11-13T22:46:26.847Z,69.16
2022-11-13T22:50:30.320Z,69.24
2022-11-13T22:54:33.912Z,68.80
2022-11-13T22:58:37.158Z,69.10
2022-11-13T23:02:47.055Z,68.95
2022-11-13T23:06:51.285Z,69.05
2022-11-13T23:10:54.951Z,69.19
2022-11-13T23:14:58.554Z,69.19
2022-11-13T23:19:04.537Z,69.10
2022-11-13T23:23:07.686Z,69.11
2022-11-13T23:27:11.141Z,69.23
2022-11-13T23:31:14.796Z,68.76
2022-11-13T23:35:19.343Z,69.48
2022-11-13T23:39:22.860Z,69.10
2022-11-13T23:43:53.872Z,69.25
2022-11-13T23:47:50.298Z,69.16
2022-11-13T23:51:55.296Z,69.06
2022-11-13T23:55:58.871Z,69.27
